createdAt,value
2022-09-04T00:00:31.339Z,856.94
2022-09-04T00:01:31.650Z,856.85
2022-09-04T00:02:31.743Z,856.94
2022-09-04T00:03:32.624Z,856.91
2022-09-04T00:04:31.236Z,856.93
2022-09-04T00:05:33.152Z,856.85
2022-09-04T00:06:29.278Z,856.89
2022-09-04T00:07:36.538Z,856.92
2022-09-04T00:08:30.725Z,856.88
2022-09-04T00:09:35.407Z,856.90
2022-09-04T00:10:33.131Z,856.89
2022-09-04T00:11:32.465Z,856.84
2022-09-04T00:12:30.358Z,856.83
2022-09-04T00:13:28.821Z,856.85
2022-09-04T00:14:28.995Z,856.77
2022-09-04T00:15:29.695Z,856.83
2022-09-04T00:16:31.928Z,856.80
2022-09-04T00:17:28.930Z,856.80
2022-09-04T00:18:29.059Z,856.82
2022-09-04T00:19:29.266Z,856.84
2022-09-04T00:20:29.572Z,856.84
2022-09-04T00:21:31.342Z,856.82
2022-09-04T00:22:30.935Z,856.85
2022-09-04T00:23:32.452Z,856.83
2022-09-04T00:24:29.441Z,856.85
2022-09-04T00:25:30.075Z,856.88
2022-09-04T00:26:31.936Z,856.91
2022-09-04T00:27:28.935Z,856.88
2022-09-04T00:28:30.949Z,856.87
2022-09-04T00:29:31.515Z,856.84
2022-09-04T00:30:29.089Z,856.87
2022-09-04T00:31:30.251Z,856.88
2022-09-04T00:32:30.147Z,856.88
2022-09-04T00:33:29.388Z,856.82
2022-09-04T00:34:30.251Z,856.89
2022-09-04T00:35:28.912Z,856.88
2022-09-04T00:36:29.893Z,856.83
2022-09-04T00:37:30.875Z,856.86
2022-09-04T00:38:28.778Z,856.85
2022-09-04T00:39:28.917Z,856.90
2022-09-04T00:40:31.341Z,856.90
2022-09-04T00:41:30.752Z,856.85
2022-09-04T00:42:30.547Z,856.88
2022-09-04T00:43:29.367Z,856.84
2022-09-04T00:44:31.363Z,856.87
2022-09-04T00:45:28.646Z,856.83
2022-09-04T00:46:30.921Z,856.84
2022-09-04T00:47:32.682Z,856.83
2022-09-04T00:48:31.981Z,856.82
2022-09-04T00:49:29.428Z,856.79
2022-09-04T00:50:29.263Z,856.81
2022-09-04T00:51:31.839Z,856.79
2022-09-04T00:52:36.433Z,856.78
2022-09-04T00:53:30.676Z,856.78
2022-09-04T00:54:30.000Z,856.84
2022-09-04T00:55:29.686Z,856.77
2022-09-04T00:56:28.831Z,856.80
2022-09-04T00:57:28.376Z,856.81
2022-09-04T00:58:29.315Z,856.74
2022-09-04T00:59:29.305Z,856.80
2022-09-04T01:00:31.139Z,856.73
2022-09-04T01:01:28.497Z,856.80
2022-09-04T01:02:28.435Z,856.77
2022-09-04T01:03:29.658Z,856.76
2022-09-04T01:04:30.733Z,856.79
2022-09-04T01:05:31.943Z,856.76
2022-09-04T01:06:28.394Z,856.81
2022-09-04T01:07:28.626Z,856.81
2022-09-04T01:08:28.464Z,856.83
2022-09-04T01:09:32.995Z,856.82
2022-09-04T01:10:29.742Z,856.83
2022-09-04T01:11:28.694Z,856.89
2022-09-04T01:12:28.218Z,856.91
2022-09-04T01:13:28.383Z,856.90
2022-09-04T01:14:28.287Z,856.92
2022-09-04T01:15:35.729Z,856.90
2022-09-04T01:16:33.373Z,856.92
2022-09-04T01:17:28.304Z,856.92
2022-09-04T01:18:29.316Z,856.92
2022-09-04T01:19:28.711Z,856.97
2022-09-04T01:20:29.034Z,856.97
2022-09-04T01:21:28.985Z,856.97
2022-09-04T01:22:31.806Z,857.05
2022-09-04T01:23:29.352Z,857.05
2022-09-04T01:24:29.091Z,857.08
2022-09-04T01:25:28.697Z,857.06
2022-09-04T01:26:29.217Z,857.07
2022-09-04T01:27:28.887Z,857.05
2022-09-04T01:28:28.316Z,857.07
2022-09-04T01:29:28.359Z,857.06
2022-09-04T01:30:29.802Z,857.10
2022-09-04T01:31:30.631Z,857.07
2022-09-04T01:32:31.514Z,857.04
2022-09-04T01:33:28.421Z,857.06
2022-09-04T01:34:28.532Z,857.11
2022-09-04T01:35:28.106Z,857.08
2022-09-04T01:36:29.326Z,857.11
2022-09-04T01:37:28.987Z,857.10
2022-09-04T01:38:29.347Z,857.08
2022-09-04T01:39:32.967Z,857.10
2022-09-04T01:40:35.432Z,857.12
2022-09-04T01:41:29.901Z,857.07
2022-09-04T01:42:29.809Z,857.10
2022-09-04T01:43:29.811Z,857.10
2022-09-04T01:44:28.874Z,857.11
2022-09-04T01:45:28.426Z,857.10
2022-09-04T01:46:30.173Z,857.10
2022-09-04T01:47:30.163Z,857.09
2022-09-04T01:48:29.752Z,857.10
2022-09-04T01:49:28.994Z,857.11
2022-09-04T01:50:28.849Z,857.11
2022-09-04T01:51:28.861Z,857.11
2022-09-04T01:52:28.839Z,857.18
2022-09-04T01:53:32.971Z,857.16
2022-09-04T01:54:28.508Z,857.13
2022-09-04T01:55:29.778Z,857.15
2022-09-04T01:56:28.254Z,857.15
2022-09-04T01:57:27.763Z,857.10
2022-09-04T01:58:28.344Z,857.09
2022-09-04T01:59:29.801Z,857.10
2022-09-04T02:00:30.064Z,857.08
2022-09-04T02:01:28.722Z,857.10
2022-09-04T02:02:28.286Z,857.14
2022-09-04T02:03:29.191Z,857.12
2022-09-04T02:04:27.827Z,857.11
2022-09-04T02:05:27.724Z,857.10
2022-09-04T02:06:32.740Z,857.17
2022-09-04T02:07:29.217Z,857.13
2022-09-04T02:08:28.912Z,857.11
2022-09-04T02:09:27.764Z,857.13
2022-09-04T02:10:30.708Z,857.10
2022-09-04T02:11:28.539Z,857.17
2022-09-04T02:12:31.432Z,857.13
2022-09-04T02:13:28.226Z,857.14
2022-09-04T02:14:30.141Z,857.11
2022-09-04T02:15:30.393Z,857.15
2022-09-04T02:16:28.291Z,857.16
2022-09-04T02:17:27.751Z,857.16
2022-09-04T02:18:32.119Z,857.18
2022-09-04T02:19:30.648Z,857.15
2022-09-04T02:20:28.223Z,857.15
2022-09-04T02:21:27.415Z,857.16
2022-09-04T02:22:27.413Z,857.12
2022-09-04T02:23:27.394Z,857.17
2022-09-04T02:24:27.378Z,857.14
2022-09-04T02:25:27.379Z,857.16
2022-09-04T02:26:27.355Z,857.10
2022-09-04T02:27:27.347Z,857.11
2022-09-04T02:28:27.337Z,857.13
2022-09-04T02:29:27.322Z,857.12
2022-09-04T02:30:27.324Z,857.11
2022-09-04T02:31:27.337Z,857.07
2022-09-04T02:32:27.290Z,857.09
2022-09-04T02:33:27.279Z,857.05
2022-09-04T02:34:27.271Z,857.03
2022-09-04T02:35:27.273Z,857.02
2022-09-04T02:36:27.262Z,856.98
2022-09-04T02:37:27.234Z,856.97
2022-09-04T02:38:27.225Z,857.01
2022-09-04T02:39:27.245Z,856.99
2022-09-04T02:40:27.548Z,857.00
2022-09-04T02:41:27.197Z,857.04
2022-09-04T02:42:27.236Z,857.03
2022-09-04T02:43:27.169Z,857.02
2022-09-04T02:44:27.162Z,857.03
2022-09-04T02:45:27.150Z,857.03
2022-09-04T02:46:27.287Z,857.07
2022-09-04T02:47:27.126Z,857.07
2022-09-04T02:48:27.120Z,857.09
2022-09-04T02:49:27.240Z,857.07
2022-09-04T02:50:27.108Z,857.07
2022-09-04T02:51:27.098Z,857.08
2022-09-04T02:52:27.094Z,857.10
2022-09-04T02:53:27.068Z,857.09
2022-09-04T02:54:27.152Z,857.08
2022-09-04T02:55:27.059Z,857.05
2022-09-04T02:56:27.033Z,857.01
2022-09-04T02:57:27.026Z,856.99
2022-09-04T02:58:27.022Z,856.96
2022-09-04T02:59:26.994Z,856.93
2022-09-04T03:00:27.060Z,856.94
2022-09-04T03:01:27.045Z,856.88
2022-09-04T03:02:27.035Z,856.94
2022-09-04T03:03:26.960Z,856.93
2022-09-04T03:04:26.945Z,856.96
2022-09-04T03:05:26.940Z,856.97
2022-09-04T03:06:26.930Z,856.99
2022-09-04T03:07:27.012Z,856.96
2022-09-04T03:08:26.903Z,856.99
2022-09-04T03:09:26.911Z,857.00
2022-09-04T03:10:26.953Z,856.97
2022-09-04T03:11:26.870Z,856.92
2022-09-04T03:12:26.858Z,856.93
2022-09-04T03:13:26.850Z,856.92
2022-09-04T03:14:26.896Z,856.94
2022-09-04T03:15:26.841Z,856.92
2022-09-04T03:16:26.890Z,856.88
2022-09-04T03:17:26.807Z,856.93
2022-09-04T03:18:26.874Z,856.92
2022-09-04T03:19:26.843Z,856.86
2022-09-04T03:20:26.904Z,856.89
2022-09-04T03:21:26.793Z,856.91
2022-09-04T03:22:26.759Z,856.88
2022-09-04T03:23:26.740Z,856.86
2022-09-04T03:24:26.734Z,856.85
2022-09-04T03:25:26.721Z,856.84
2022-09-04T03:26:26.727Z,856.90
2022-09-04T03:27:26.697Z,856.90
2022-09-04T03:28:26.911Z,856.96
2022-09-04T03:29:26.690Z,856.98
2022-09-04T03:30:26.663Z,856.98
2022-09-04T03:31:26.707Z,856.98
2022-09-04T03:32:26.646Z,857.02
2022-09-04T03:33:26.633Z,857.02
2022-09-04T03:34:26.619Z,857.03
2022-09-04T03:35:26.630Z,857.03
2022-09-04T03:36:26.600Z,857.13
2022-09-04T03:37:26.653Z,857.11
2022-09-04T03:38:26.575Z,857.18
2022-09-04T03:39:26.601Z,857.14
2022-09-04T03:40:26.572Z,857.07
2022-09-04T03:41:26.625Z,857.14
2022-09-04T03:42:26.532Z,857.13
2022-09-04T03:43:26.525Z,857.08
2022-09-04T03:44:26.565Z,857.08
2022-09-04T03:45:26.503Z,857.12
2022-09-04T03:46:26.530Z,857.09
2022-09-04T03:47:26.563Z,857.05
2022-09-04T03:48:26.648Z,857.10
2022-09-04T03:49:26.462Z,857.04
2022-09-04T03:50:26.457Z,857.03
2022-09-04T03:51:26.448Z,857.03
2022-09-04T03:52:26.427Z,856.98
2022-09-04T03:53:26.414Z,856.99
2022-09-04T03:54:26.402Z,856.99
2022-09-04T03:55:26.448Z,856.99
2022-09-04T03:56:26.383Z,856.99
2022-09-04T03:57:26.551Z,856.91
2022-09-04T03:58:26.433Z,856.92
2022-09-04T03:59:26.355Z,856.97
2022-09-04T04:00:26.345Z,856.94
2022-09-04T04:01:26.415Z,856.95
2022-09-04T04:02:26.418Z,856.97
2022-09-04T04:03:26.321Z,856.95
2022-09-04T04:04:26.359Z,856.99
2022-09-04T04:05:26.339Z,857.04
2022-09-04T04:06:26.281Z,856.99
2022-09-04T04:07:26.273Z,857.05
2022-09-04T04:08:26.277Z,857.06
2022-09-04T04:09:26.246Z,857.05
2022-09-04T04:10:26.309Z,857.08
2022-09-04T04:11:26.227Z,857.07
2022-09-04T04:12:26.212Z,857.13
2022-09-04T04:13:26.264Z,857.10
2022-09-04T04:14:26.196Z,857.14
2022-09-04T04:15:26.186Z,857.21
2022-09-04T04:16:26.230Z,857.19
2022-09-04T04:17:26.163Z,857.23
2022-09-04T04:18:26.212Z,857.20
2022-09-04T04:19:26.147Z,857.25
2022-09-04T04:20:26.140Z,857.29
2022-09-04T04:21:26.119Z,857.31
2022-09-04T04:22:26.111Z,857.31
2022-09-04T04:23:26.094Z,857.28
2022-09-04T04:24:26.086Z,857.29
2022-09-04T04:25:26.079Z,857.36
2022-09-04T04:26:26.127Z,857.33
2022-09-04T04:27:26.057Z,857.36
2022-09-04T04:28:26.218Z,857.38
2022-09-04T04:29:26.847Z,857.40
2022-09-04T04:30:26.019Z,857.38
2022-09-04T04:31:26.116Z,857.40
2022-09-04T04:32:26.109Z,857.40
2022-09-04T04:33:25.984Z,857.42
2022-09-04T04:34:26.002Z,857.42
2022-09-04T04:35:26.020Z,857.45
2022-09-04T04:36:25.995Z,857.44
2022-09-04T04:37:25.944Z,857.43
2022-09-04T04:38:26.193Z,857.48
2022-09-04T04:39:30.160Z,857.42
2022-09-04T04:40:26.153Z,857.48
2022-09-04T04:41:25.897Z,857.46
2022-09-04T04:42:25.907Z,857.52
2022-09-04T04:43:25.943Z,857.53
2022-09-04T04:44:25.876Z,857.53
2022-09-04T04:45:25.855Z,857.59
2022-09-04T04:46:25.925Z,857.63
2022-09-04T04:47:25.834Z,857.61
2022-09-04T04:48:26.034Z,857.60
2022-09-04T04:49:25.815Z,857.60
2022-09-04T04:50:25.861Z,857.64
2022-09-04T04:51:25.796Z,857.64
2022-09-04T04:52:25.794Z,857.65
2022-09-04T04:53:25.783Z,857.67
2022-09-04T04:54:25.822Z,857.67
2022-09-04T04:55:25.749Z,857.66
2022-09-04T04:56:25.740Z,857.64
2022-09-04T04:57:25.730Z,857.67
2022-09-04T04:58:25.913Z,857.70
2022-09-04T04:59:25.717Z,857.67
2022-09-04T05:00:27.791Z,857.68
2022-09-04T05:01:25.754Z,857.73
2022-09-04T05:02:25.821Z,857.73
2022-09-04T05:03:25.661Z,857.71
2022-09-04T05:04:25.654Z,857.73
2022-09-04T05:05:25.650Z,857.71
2022-09-04T05:06:25.636Z,857.75
2022-09-04T05:07:25.629Z,857.80
2022-09-04T05:08:25.813Z,857.80
2022-09-04T05:09:25.605Z,857.80
2022-09-04T05:10:25.659Z,857.81
2022-09-04T05:11:25.578Z,857.87
2022-09-04T05:12:25.571Z,857.84
2022-09-04T05:13:25.560Z,857.84
2022-09-04T05:14:25.548Z,857.85
2022-09-04T05:15:25.600Z,857.87
2022-09-04T05:16:25.558Z,857.87
2022-09-04T05:17:25.512Z,857.84
2022-09-04T05:18:25.614Z,857.88
2022-09-04T05:19:25.488Z,857.87
2022-09-04T05:20:25.479Z,857.87
2022-09-04T05:21:25.493Z,857.87
2022-09-04T05:22:25.461Z,857.88
2022-09-04T05:23:28.859Z,857.89
2022-09-04T05:24:25.438Z,857.98
2022-09-04T05:25:25.431Z,857.96
2022-09-04T05:26:25.415Z,857.95
2022-09-04T05:27:25.417Z,857.96
2022-09-04T05:28:25.507Z,857.98
2022-09-04T05:29:28.225Z,857.97
2022-09-04T05:30:26.375Z,857.97
2022-09-04T05:31:25.476Z,857.99
2022-09-04T05:32:25.350Z,858.00
2022-09-04T05:33:25.377Z,857.98
2022-09-04T05:34:25.408Z,857.96
2022-09-04T05:35:25.373Z,857.97
2022-09-04T05:36:26.321Z,857.98
2022-09-04T05:37:25.297Z,858.01
2022-09-04T05:38:25.405Z,857.97
2022-09-04T05:39:25.457Z,857.96
2022-09-04T05:40:25.263Z,857.93
2022-09-04T05:41:25.259Z,857.95
2022-09-04T05:42:25.243Z,857.94
2022-09-04T05:43:25.236Z,858.02
2022-09-04T05:44:25.224Z,857.98
2022-09-04T05:45:25.220Z,857.98
2022-09-04T05:46:25.213Z,858.01
2022-09-04T05:47:29.839Z,857.97
2022-09-04T05:48:26.441Z,858.01
2022-09-04T05:49:25.171Z,857.97
2022-09-04T05:50:25.176Z,857.98
2022-09-04T05:51:25.164Z,857.97
2022-09-04T05:52:25.132Z,858.01
2022-09-04T05:53:25.123Z,858.03
2022-09-04T05:54:25.154Z,858.06
2022-09-04T05:55:25.116Z,858.05
2022-09-04T05:56:25.218Z,858.09
2022-09-04T05:57:25.095Z,858.09
2022-09-04T05:58:25.152Z,858.07
2022-09-04T05:59:25.055Z,858.13
2022-09-04T06:00:25.048Z,858.16
2022-09-04T06:01:25.193Z,858.10
2022-09-04T06:02:25.132Z,858.06
2022-09-04T06:03:25.116Z,858.06
2022-09-04T06:04:25.001Z,858.06
2022-09-04T06:05:24.990Z,858.11
2022-09-04T06:06:25.001Z,858.07
2022-09-04T06:07:24.988Z,858.12
2022-09-04T06:08:28.418Z,858.12
2022-09-04T06:09:24.947Z,858.11
2022-09-04T06:10:25.009Z,858.12
2022-09-04T06:11:25.013Z,858.15
2022-09-04T06:12:24.985Z,858.14
2022-09-04T06:13:24.973Z,858.18
2022-09-04T06:14:24.910Z,858.23
2022-09-04T06:15:24.892Z,858.20
2022-09-04T06:16:24.970Z,858.19
2022-09-04T06:17:24.855Z,858.18
2022-09-04T06:18:25.004Z,858.18
2022-09-04T06:19:24.840Z,858.20
2022-09-04T06:20:24.823Z,858.20
2022-09-04T06:21:25.004Z,858.21
2022-09-04T06:22:24.802Z,858.22
2022-09-04T06:23:24.791Z,858.22
2022-09-04T06:24:24.799Z,858.25
2022-09-04T06:25:24.787Z,858.25
2022-09-04T06:26:24.766Z,858.22
2022-09-04T06:27:24.743Z,858.29
2022-09-04T06:28:24.860Z,858.29
2022-09-04T06:29:24.728Z,858.34
2022-09-04T06:30:24.731Z,858.34
2022-09-04T06:31:24.762Z,858.34
2022-09-04T06:32:24.696Z,858.36
2022-09-04T06:33:24.680Z,858.32
2022-09-04T06:34:24.668Z,858.33
2022-09-04T06:35:24.682Z,858.30
2022-09-04T06:36:24.662Z,858.24
2022-09-04T06:37:24.639Z,858.26
2022-09-04T06:38:24.792Z,858.29
2022-09-04T06:39:24.740Z,858.24
2022-09-04T06:40:24.650Z,858.29
2022-09-04T06:41:24.607Z,858.27
2022-09-04T06:42:24.595Z,858.30
2022-09-04T06:43:24.570Z,858.25
2022-09-04T06:44:25.611Z,858.25
2022-09-04T06:45:24.550Z,858.26
2022-09-04T06:46:24.576Z,858.27
2022-09-04T06:47:24.539Z,858.22
2022-09-04T06:48:24.628Z,858.24
2022-09-04T06:49:24.505Z,858.24
2022-09-04T06:50:24.538Z,858.18
2022-09-04T06:51:24.530Z,858.23
2022-09-04T06:52:24.483Z,858.17
2022-09-04T06:53:24.463Z,858.16
2022-09-04T06:54:24.455Z,858.18
2022-09-04T06:55:24.439Z,858.13
2022-09-04T06:56:24.430Z,858.14
2022-09-04T06:57:24.435Z,858.14
2022-09-04T06:58:24.532Z,858.17
2022-09-04T06:59:24.470Z,858.17
2022-09-04T07:00:25.395Z,858.13
2022-09-04T07:01:24.491Z,858.10
2022-09-04T07:02:24.541Z,858.11
2022-09-04T07:03:24.360Z,858.08
2022-09-04T07:04:24.352Z,858.10
2022-09-04T07:05:24.391Z,858.09
2022-09-04T07:06:24.320Z,858.11
2022-09-04T07:07:24.309Z,858.09
2022-09-04T07:08:24.366Z,858.12
2022-09-04T07:09:24.316Z,858.11
2022-09-04T07:10:24.277Z,858.15
2022-09-04T07:11:24.268Z,858.14
2022-09-04T07:12:24.256Z,858.14
2022-09-04T07:13:24.245Z,858.16
2022-09-04T07:14:24.247Z,858.18
2022-09-04T07:15:24.390Z,858.18
2022-09-04T07:16:24.212Z,858.22
2022-09-04T07:17:24.229Z,858.21
2022-09-04T07:18:24.300Z,858.24
2022-09-04T07:19:24.201Z,858.21
2022-09-04T07:20:24.171Z,858.29
2022-09-04T07:21:24.156Z,858.27
2022-09-04T07:22:24.155Z,858.28
2022-09-04T07:23:24.149Z,858.24
2022-09-04T07:24:24.126Z,858.32
2022-09-04T07:25:24.196Z,858.34
2022-09-04T07:26:24.112Z,858.36
2022-09-04T07:27:24.093Z,858.38
2022-09-04T07:28:24.331Z,858.37
2022-09-04T07:29:26.127Z,858.38
2022-09-04T07:30:24.059Z,858.43
2022-09-04T07:31:24.082Z,858.43
2022-09-04T07:32:24.050Z,858.43
2022-09-04T07:33:24.028Z,858.41
2022-09-04T07:34:24.103Z,858.35
2022-09-04T07:35:24.011Z,858.39
2022-09-04T07:36:27.731Z,858.37
2022-09-04T07:37:25.037Z,858.36
2022-09-04T07:38:24.288Z,858.39
2022-09-04T07:39:24.067Z,858.34
2022-09-04T07:40:23.950Z,858.35
2022-09-04T07:41:23.940Z,858.34
2022-09-04T07:42:23.960Z,858.33
2022-09-04T07:43:23.923Z,858.32
2022-09-04T07:44:23.906Z,858.35
2022-09-04T07:45:23.908Z,858.38
2022-09-04T07:46:23.956Z,858.29
2022-09-04T07:47:23.993Z,858.34
2022-09-04T07:48:23.859Z,858.37
2022-09-04T07:49:23.865Z,858.41
2022-09-04T07:50:23.839Z,858.40
2022-09-04T07:51:23.842Z,858.37
2022-09-04T07:52:23.819Z,858.37
2022-09-04T07:53:23.892Z,858.39
2022-09-04T07:54:23.799Z,858.39
2022-09-04T07:55:23.789Z,858.39
2022-09-04T07:56:23.792Z,858.38
2022-09-04T07:57:23.767Z,858.41
2022-09-04T07:58:23.794Z,858.43
2022-09-04T07:59:23.755Z,858.42
2022-09-04T08:00:23.817Z,858.40
2022-09-04T08:01:23.852Z,858.48
2022-09-04T08:02:23.711Z,858.45
2022-09-04T08:03:23.700Z,858.44
2022-09-04T08:04:23.746Z,858.47
2022-09-04T08:05:23.677Z,858.49
2022-09-04T08:06:23.731Z,858.51
2022-09-04T08:07:24.683Z,858.50
2022-09-04T08:08:23.644Z,858.52
2022-09-04T08:09:23.631Z,858.52
2022-09-04T08:10:23.623Z,858.50
2022-09-04T08:11:23.608Z,858.51
2022-09-04T08:12:23.601Z,858.45
2022-09-04T08:13:23.614Z,858.48
2022-09-04T08:14:23.578Z,858.49
2022-09-04T08:15:23.603Z,858.45
2022-09-04T08:16:23.612Z,858.47
2022-09-04T08:17:23.547Z,858.49
2022-09-04T08:18:23.580Z,858.45
2022-09-04T08:19:23.600Z,858.49
2022-09-04T08:20:23.511Z,858.45
2022-09-04T08:21:23.502Z,858.49
2022-09-04T08:22:28.146Z,858.47
2022-09-04T08:23:23.474Z,858.47
2022-09-04T08:24:23.467Z,858.51
2022-09-04T08:25:23.469Z,858.56
2022-09-04T08:26:23.469Z,858.57
2022-09-04T08:27:23.472Z,858.52
2022-09-04T08:28:23.425Z,858.55
2022-09-04T08:29:23.415Z,858.59
2022-09-04T08:30:23.397Z,858.54
2022-09-04T08:31:23.441Z,858.56
2022-09-04T08:32:23.395Z,858.60
2022-09-04T08:33:23.370Z,858.63
2022-09-04T08:34:23.354Z,858.61
2022-09-04T08:35:23.377Z,858.57
2022-09-04T08:36:23.332Z,858.59
2022-09-04T08:37:23.325Z,858.61
2022-09-04T08:38:23.403Z,858.56
2022-09-04T08:39:23.318Z,858.56
2022-09-04T08:40:23.292Z,858.56
2022-09-04T08:41:23.283Z,858.54
2022-09-04T08:42:23.286Z,858.57
2022-09-04T08:43:23.254Z,858.61
2022-09-04T08:44:23.253Z,858.62
2022-09-04T08:45:23.242Z,858.64
2022-09-04T08:46:27.094Z,858.68
2022-09-04T08:47:24.221Z,858.68
2022-09-04T08:48:23.271Z,858.68
2022-09-04T08:49:23.189Z,858.64
2022-09-04T08:50:23.181Z,858.69
2022-09-04T08:51:23.176Z,858.65
2022-09-04T08:52:23.160Z,858.66
2022-09-04T08:53:23.146Z,858.67
2022-09-04T08:54:23.138Z,858.69
2022-09-04T08:55:23.143Z,858.66
2022-09-04T08:56:23.126Z,858.66
2022-09-04T08:57:23.156Z,858.71
2022-09-04T08:58:23.181Z,858.67
2022-09-04T08:59:23.081Z,858.67
2022-09-04T09:00:23.134Z,858.65
2022-09-04T09:01:23.134Z,858.68
2022-09-04T09:02:23.085Z,858.66
2022-09-04T09:03:23.086Z,858.66
2022-09-04T09:04:23.027Z,858.66
2022-09-04T09:05:23.069Z,858.68
2022-09-04T09:06:23.002Z,858.64
2022-09-04T09:07:22.996Z,858.64
2022-09-04T09:08:23.044Z,858.61
2022-09-04T09:09:23.048Z,858.65
2022-09-04T09:10:22.959Z,858.60
2022-09-04T09:11:22.949Z,858.64
2022-09-04T09:12:22.935Z,858.60
2022-09-04T09:13:22.940Z,858.63
2022-09-04T09:14:22.916Z,858.59
2022-09-04T09:15:22.950Z,858.60
2022-09-04T09:16:22.953Z,858.63
2022-09-04T09:17:29.875Z,858.66
2022-09-04T09:18:24.242Z,858.64
2022-09-04T09:19:22.922Z,858.64
2022-09-04T09:20:22.856Z,858.66
2022-09-04T09:21:22.893Z,858.69
2022-09-04T09:22:22.830Z,858.61
2022-09-04T09:23:22.820Z,858.58
2022-09-04T09:24:22.832Z,858.65
2022-09-04T09:25:22.852Z,858.63
2022-09-04T09:26:22.787Z,858.63
2022-09-04T09:27:22.771Z,858.61
2022-09-04T09:28:22.760Z,858.59
2022-09-04T09:29:22.755Z,858.59
2022-09-04T09:30:22.753Z,858.66
2022-09-04T09:31:22.892Z,858.66
2022-09-04T09:32:22.931Z,858.65
2022-09-04T09:33:22.725Z,858.66
2022-09-04T09:34:22.693Z,858.66
2022-09-04T09:35:22.694Z,858.65
2022-09-04T09:36:22.786Z,858.67
2022-09-04T09:37:22.670Z,858.68
2022-09-04T09:38:22.651Z,858.68
2022-09-04T09:39:22.720Z,858.66
2022-09-04T09:40:22.631Z,858.65
2022-09-04T09:41:22.616Z,858.65
2022-09-04T09:42:22.628Z,858.68
2022-09-04T09:43:22.655Z,858.66
2022-09-04T09:44:22.631Z,858.63
2022-09-04T09:45:22.579Z,858.70
2022-09-04T09:46:22.677Z,858.69
2022-09-04T09:47:22.552Z,858.67
2022-09-04T09:48:22.560Z,858.68
2022-09-04T09:49:22.531Z,858.64
2022-09-04T09:50:22.523Z,858.65
2022-09-04T09:51:22.511Z,858.65
2022-09-04T09:52:22.526Z,858.63
2022-09-04T09:53:22.585Z,858.68
2022-09-04T09:54:22.501Z,858.67
2022-09-04T09:55:22.464Z,858.66
2022-09-04T09:56:22.458Z,858.65
2022-09-04T09:57:27.326Z,858.63
2022-09-04T09:58:23.494Z,858.67
2022-09-04T09:59:22.443Z,858.65
2022-09-04T10:00:22.410Z,858.65
2022-09-04T10:01:22.450Z,858.67
2022-09-04T10:02:22.474Z,858.69
2022-09-04T10:03:22.380Z,858.69
2022-09-04T10:04:22.425Z,858.66
2022-09-04T10:05:22.368Z,858.68
2022-09-04T10:06:22.354Z,858.68
2022-09-04T10:07:22.329Z,858.72
2022-09-04T10:08:31.794Z,858.72
2022-09-04T10:09:23.315Z,858.72
2022-09-04T10:10:22.308Z,858.73
2022-09-04T10:11:22.370Z,858.75
2022-09-04T10:12:22.280Z,858.76
2022-09-04T10:13:22.341Z,858.78
2022-09-04T10:14:25.127Z,858.81
2022-09-04T10:15:22.248Z,858.84
2022-09-04T10:16:22.331Z,858.77
2022-09-04T10:17:22.298Z,858.81
2022-09-04T10:18:22.215Z,858.86
2022-09-04T10:19:22.203Z,858.79
2022-09-04T10:20:22.196Z,858.83
2022-09-04T10:21:22.184Z,858.77
2022-09-04T10:22:22.170Z,858.78
2022-09-04T10:23:22.275Z,858.79
2022-09-04T10:24:22.150Z,858.78
2022-09-04T10:25:22.137Z,858.77
2022-09-04T10:26:22.137Z,858.76
2022-09-04T10:27:22.137Z,858.75
2022-09-04T10:28:22.107Z,858.75
2022-09-04T10:29:22.154Z,858.73
2022-09-04T10:30:22.155Z,858.72
2022-09-04T10:31:22.087Z,858.71
2022-09-04T10:32:22.059Z,858.75
2022-09-04T10:33:22.214Z,858.74
2022-09-04T10:34:22.196Z,858.73
2022-09-04T10:35:22.036Z,858.77
2022-09-04T10:36:22.015Z,858.71
2022-09-04T10:37:22.007Z,858.74
2022-09-04T10:38:22.000Z,858.76
2022-09-04T10:39:22.052Z,858.77
2022-09-04T10:40:22.008Z,858.77
2022-09-04T10:41:21.966Z,858.75
2022-09-04T10:42:21.953Z,858.79
2022-09-04T10:43:22.059Z,858.73
2022-09-04T10:44:21.934Z,858.74
2022-09-04T10:45:21.919Z,858.70
2022-09-04T10:46:23.311Z,858.71
2022-09-04T10:47:21.899Z,858.72
2022-09-04T10:48:25.323Z,858.72
2022-09-04T10:49:22.877Z,858.74
2022-09-04T10:50:21.881Z,858.70
2022-09-04T10:51:21.853Z,858.73
2022-09-04T10:52:21.898Z,858.66
2022-09-04T10:53:21.831Z,858.59
2022-09-04T10:54:21.830Z,858.57
2022-09-04T10:55:21.809Z,858.60
2022-09-04T10:56:21.816Z,858.57
2022-09-04T10:57:21.790Z,858.57
2022-09-04T10:58:21.781Z,858.56
2022-09-04T10:59:21.817Z,858.54
2022-09-04T11:00:21.755Z,858.56
2022-09-04T11:01:21.777Z,858.52
2022-09-04T11:02:21.803Z,858.55
2022-09-04T11:03:21.726Z,858.54
2022-09-04T11:04:21.713Z,858.57
2022-09-04T11:05:21.701Z,858.55
2022-09-04T11:06:21.692Z,858.58
2022-09-04T11:07:25.745Z,858.60
2022-09-04T11:08:22.674Z,858.54
2022-09-04T11:09:21.666Z,858.54
2022-09-04T11:10:21.641Z,858.53
2022-09-04T11:11:21.643Z,858.56
2022-09-04T11:12:21.683Z,858.55
2022-09-04T11:13:21.611Z,858.54
2022-09-04T11:14:21.612Z,858.59
2022-09-04T11:15:21.601Z,858.55
2022-09-04T11:16:21.592Z,858.60
2022-09-04T11:17:21.569Z,858.60
2022-09-04T11:18:21.625Z,858.59
2022-09-04T11:19:21.560Z,858.58
2022-09-04T11:20:21.547Z,858.63
2022-09-04T11:21:21.528Z,858.61
2022-09-04T11:22:21.514Z,858.61
2022-09-04T11:23:21.503Z,858.62
2022-09-04T11:24:21.487Z,858.57
2022-09-04T11:25:21.482Z,858.59
2022-09-04T11:26:21.489Z,858.60
2022-09-04T11:27:21.457Z,858.61
2022-09-04T11:28:21.454Z,858.62
2022-09-04T11:29:21.434Z,858.62
2022-09-04T11:30:21.465Z,858.60
2022-09-04T11:31:21.439Z,858.60
2022-09-04T11:32:21.567Z,858.60
2022-09-04T11:33:21.451Z,858.56
2022-09-04T11:34:21.379Z,858.57
2022-09-04T11:35:21.370Z,858.57
2022-09-04T11:36:21.358Z,858.54
2022-09-04T11:37:21.344Z,858.53
2022-09-04T11:38:21.359Z,858.55
2022-09-04T11:39:21.397Z,858.49
2022-09-04T11:40:21.512Z,858.53
2022-09-04T11:41:21.301Z,858.49
2022-09-04T11:42:21.292Z,858.51
2022-09-04T11:43:21.281Z,858.48
2022-09-04T11:44:21.285Z,858.48
2022-09-04T11:45:21.481Z,858.48
2022-09-04T11:46:21.245Z,858.44
2022-09-04T11:47:21.236Z,858.42
2022-09-04T11:48:21.280Z,858.46
2022-09-04T11:49:21.220Z,858.44
2022-09-04T11:50:21.214Z,858.41
2022-09-04T11:51:21.192Z,858.44
2022-09-04T11:52:21.182Z,858.45
2022-09-04T11:53:21.252Z,858.45
2022-09-04T11:54:21.166Z,858.47
2022-09-04T11:55:21.151Z,858.45
2022-09-04T11:56:21.171Z,858.43
2022-09-04T11:57:21.144Z,858.48
2022-09-04T11:58:21.216Z,858.45
2022-09-04T11:59:21.118Z,858.45
2022-09-04T12:00:21.095Z,858.46
2022-09-04T12:01:21.090Z,858.43
2022-09-04T12:02:21.293Z,858.45
2022-09-04T12:03:21.220Z,858.52
2022-09-04T12:04:21.169Z,858.48
2022-09-04T12:05:21.087Z,858.49
2022-09-04T12:06:21.084Z,858.46
2022-09-04T12:07:21.026Z,858.46
2022-09-04T12:08:21.005Z,858.47
2022-09-04T12:09:21.044Z,858.47
2022-09-04T12:10:20.989Z,858.46
2022-09-04T12:11:20.970Z,858.47
2022-09-04T12:12:20.957Z,858.46
2022-09-04T12:13:21.057Z,858.54
2022-09-04T12:14:20.939Z,858.49
2022-09-04T12:15:21.028Z,858.47
2022-09-04T12:16:20.984Z,858.45
2022-09-04T12:17:20.905Z,858.47
2022-09-04T12:18:20.898Z,858.49
2022-09-04T12:19:20.904Z,858.45
2022-09-04T12:20:20.879Z,858.46
2022-09-04T12:21:20.860Z,858.45
2022-09-04T12:22:20.962Z,858.44
2022-09-04T12:23:20.885Z,858.40
2022-09-04T12:24:20.855Z,858.41
2022-09-04T12:25:20.852Z,858.44
2022-09-04T12:26:20.808Z,858.42
2022-09-04T12:27:20.793Z,858.43
2022-09-04T12:28:20.832Z,858.44